createdAt,value
2022-12-23T00:01:50.532Z,67.31
2022-12-23T00:04:17.260Z,68.81
2022-12-23T00:06:43.919Z,67.95
2022-12-23T00:09:10.514Z,67.94
2022-12-23T00:11:37.117Z,68.17
2022-12-23T00:14:22.393Z,68.06
2022-12-23T00:16:50.638Z,68.86
2022-12-23T00:19:17.560Z,69.02
2022-12-23T00:21:44.205Z,68.76
2022-12-23T00:24:11.807Z,68.31
2022-12-23T00:26:38.679Z,67.99
2022-12-23T00:29:05.654Z,68.06
2022-12-23T00:31:32.351Z,68.31
2022-12-23T00:33:59.001Z,68.27
2022-12-23T00:36:28.334Z,68.39
2022-12-23T00:39:14.672Z,67.50
2022-12-23T00:42:00.591Z,67.63
2022-12-23T00:44:27.392Z,66.94
2022-12-23T00:46:54.115Z,67.28
2022-12-23T00:49:40.002Z,67.96
2022-12-23T00:52:09.393Z,68.34
2022-12-23T00:54:36.493Z,68.17
2022-12-23T00:57:03.438Z,68.80
2022-12-23T00:59:30.075Z,68.28
2022-12-23T01:02:15.295Z,68.25
2022-12-23T01:05:00.496Z,68.47
2022-12-23T01:07:27.217Z,68.17
2022-12-23T01:09:53.839Z,68.34
2022-12-23T01:12:20.553Z,68.69
2022-12-23T01:14:47.263Z,68.28
2022-12-23T01:17:15.311Z,68.39
2022-12-23T01:19:42.036Z,66.98
2022-12-23T01:22:08.734Z,67.42
2022-12-23T01:24:35.367Z,67.94
2022-12-23T01:27:02.011Z,68.16
2022-12-23T01:29:29.041Z,68.17
2022-12-23T01:31:55.830Z,68.25
2022-12-23T01:34:22.644Z,68.34
2022-12-23T01:36:49.273Z,68.63
2022-12-23T01:39:15.942Z,68.53
2022-12-23T01:42:05.473Z,69.88
2022-12-23T01:44:51.720Z,69.83
2022-12-23T01:47:24.172Z,69.04
2022-12-23T01:49:56.506Z,69.02
2022-12-23T01:52:23.707Z,68.95
2022-12-23T01:54:50.537Z,67.31
2022-12-23T01:57:17.315Z,67.45
2022-12-23T02:00:03.800Z,67.14
2022-12-23T02:02:54.749Z,67.49
2022-12-23T02:05:23.800Z,66.93
2022-12-23T02:08:11.584Z,66.87
2022-12-23T02:11:03.388Z,68.23
2022-12-23T02:14:01.491Z,68.15
2022-12-23T02:16:31.720Z,68.82
2022-12-23T02:19:22.726Z,67.91
2022-12-23T02:22:14.736Z,67.76
2022-12-23T02:25:32.650Z,68.06
2022-12-23T02:28:11.092Z,68.66
2022-12-23T02:30:48.516Z,69.12
2022-12-23T02:33:29.485Z,69.89
2022-12-23T02:36:18.424Z,70.25
2022-12-23T02:39:19.274Z,70.59
2022-12-23T02:42:06.400Z,70.51
2022-12-23T02:44:48.552Z,69.81
2022-12-23T02:47:24.377Z,69.22
2022-12-23T02:49:55.840Z,70.01
2022-12-23T02:52:28.847Z,70.36
2022-12-23T02:55:03.184Z,69.54
2022-12-23T02:57:35.538Z,69.62
2022-12-23T03:00:03.551Z,69.91
2022-12-23T03:02:34.364Z,70.22
2022-12-23T03:05:01.376Z,69.43
2022-12-23T03:07:35.327Z,69.54
2022-12-23T03:10:08.193Z,70.24
2022-12-23T03:12:56.175Z,70.99
2022-12-23T03:15:31.536Z,71.10
2022-12-23T03:18:11.861Z,71.43
2022-12-23T03:21:13.342Z,71.59
2022-12-23T03:23:56.937Z,71.75
2022-12-23T03:26:39.024Z,71.15
2022-12-23T03:29:16.268Z,70.02
2022-12-23T03:31:44.427Z,69.50
2022-12-23T03:34:15.599Z,68.98
2022-12-23T03:36:47.593Z,69.65
2022-12-23T03:39:19.095Z,71.13
2022-12-23T03:41:52.544Z,72.07
2022-12-23T03:44:26.409Z,71.08
2022-12-23T03:47:05.710Z,70.94
2022-12-23T03:49:37.771Z,71.15
2022-12-23T03:52:21.654Z,71.22
2022-12-23T03:54:55.899Z,70.76
2022-12-23T03:57:28.758Z,70.92
2022-12-23T03:59:55.826Z,70.71
2022-12-23T04:02:37.525Z,71.49
2022-12-23T04:05:13.020Z,72.27
2022-12-23T04:07:46.277Z,71.15
2022-12-23T04:10:13.720Z,70.61
2022-12-23T04:12:40.747Z,70.39
2022-12-23T04:15:12.868Z,68.69
2022-12-23T04:17:40.289Z,69.13
2022-12-23T04:20:07.749Z,69.61
2022-12-23T04:22:34.367Z,68.81
2022-12-23T04:25:00.988Z,69.67
2022-12-23T04:27:27.608Z,69.03
2022-12-23T04:29:54.165Z,68.95
2022-12-23T04:32:20.874Z,70.97
2022-12-23T04:34:47.520Z,69.97
2022-12-23T04:37:14.171Z,71.68
2022-12-23T04:39:40.710Z,71.96
2022-12-23T04:42:07.411Z,70.95
2022-12-23T04:44:33.967Z,70.55
2022-12-23T04:47:00.747Z,70.01
2022-12-23T04:49:27.334Z,69.83
2022-12-23T04:51:53.952Z,69.40
2022-12-23T04:54:20.548Z,69.53
2022-12-23T04:56:47.283Z,70.55
2022-12-23T04:59:13.921Z,71.47
2022-12-23T05:01:42.369Z,70.97
2022-12-23T05:04:09.855Z,71.36
2022-12-23T05:06:37.238Z,71.22
2022-12-23T05:09:04.351Z,71.49
2022-12-23T05:11:34.927Z,70.86
2022-12-23T05:14:03.980Z,71.66
2022-12-23T05:16:31.655Z,67.50
2022-12-23T05:18:58.382Z,70.63
2022-12-23T05:21:25.025Z,69.77
2022-12-23T05:23:51.877Z,69.20
2022-12-23T05:26:18.769Z,71.46
2022-12-23T05:28:45.699Z,71.05
2022-12-23T05:31:13.606Z,71.14
2022-12-23T05:33:40.608Z,71.41
2022-12-23T05:36:07.538Z,70.62
2022-12-23T05:38:34.155Z,69.99
2022-12-23T05:41:00.771Z,69.72
2022-12-23T05:43:27.407Z,69.76
2022-12-23T05:45:54.121Z,71.31
2022-12-23T05:48:21.063Z,71.75
2022-12-23T05:50:52.153Z,71.95
2022-12-23T05:53:21.986Z,71.92
2022-12-23T05:55:48.692Z,71.76
2022-12-23T05:58:15.427Z,71.94
2022-12-23T06:00:42.071Z,71.32
2022-12-23T06:03:08.849Z,72.12
2022-12-23T06:05:37.743Z,72.83
2022-12-23T06:08:05.304Z,72.41
2022-12-23T06:10:31.979Z,72.26
2022-12-23T06:12:58.891Z,69.79
2022-12-23T06:15:25.753Z,71.13
2022-12-23T06:17:52.410Z,70.70
2022-12-23T06:20:20.934Z,69.81
2022-12-23T06:22:47.867Z,69.65
2022-12-23T06:25:15.039Z,69.24
2022-12-23T06:27:41.585Z,70.79
2022-12-23T06:30:09.099Z,69.69
2022-12-23T06:32:38.511Z,70.34
2022-12-23T06:35:07.095Z,70.96
2022-12-23T06:37:34.114Z,71.07
2022-12-23T06:40:00.721Z,71.13
2022-12-23T06:42:27.312Z,70.65
2022-12-23T06:44:54.035Z,70.25
2022-12-23T06:47:20.644Z,70.41
2022-12-23T06:49:47.352Z,69.66
2022-12-23T06:52:13.933Z,69.31
2022-12-23T06:54:40.570Z,69.26
2022-12-23T06:57:07.163Z,69.71
2022-12-23T06:59:33.807Z,70.60
2022-12-23T07:02:00.648Z,70.89
2022-12-23T07:04:27.367Z,69.62
2022-12-23T07:06:54.058Z,69.70
2022-12-23T07:09:20.694Z,69.27
2022-12-23T07:11:47.278Z,70.15
2022-12-23T07:14:15.320Z,68.84
2022-12-23T07:16:41.970Z,69.15
2022-12-23T07:19:08.591Z,68.04
2022-12-23T07:21:36.663Z,66.83
2022-12-23T07:24:03.443Z,67.36
2022-12-23T07:26:30.060Z,67.10
2022-12-23T07:28:56.645Z,66.56
2022-12-23T07:31:23.368Z,67.11
2022-12-23T07:33:50.066Z,68.29
2022-12-23T07:36:16.762Z,68.76
2022-12-23T07:38:44.411Z,68.74
2022-12-23T07:41:11.000Z,68.46
2022-12-23T07:43:37.626Z,69.54
2022-12-23T07:46:08.723Z,69.87
2022-12-23T07:48:35.831Z,69.98
2022-12-23T07:51:03.517Z,69.13
2022-12-23T07:53:30.202Z,69.47
2022-12-23T07:55:57.124Z,69.35
2022-12-23T07:58:24.509Z,68.91
2022-12-23T08:00:51.286Z,68.59
2022-12-23T08:03:18.023Z,68.34
2022-12-23T08:05:44.660Z,68.98
2022-12-23T08:08:11.930Z,68.88
2022-12-23T08:10:44.364Z,68.54
2022-12-23T08:13:14.621Z,68.37
2022-12-23T08:15:41.212Z,68.32
2022-12-23T08:18:08.174Z,68.48
2022-12-23T08:20:34.790Z,68.57
2022-12-23T08:23:01.421Z,69.16
2022-12-23T08:25:28.123Z,69.04
2022-12-23T08:27:54.773Z,68.83
2022-12-23T08:30:30.738Z,69.10
2022-12-23T08:32:57.493Z,69.14
2022-12-23T08:35:24.121Z,69.22
2022-12-23T08:37:55.029Z,69.58
2022-12-23T08:40:21.737Z,69.48
2022-12-23T08:42:49.539Z,69.04
2022-12-23T08:45:19.302Z,67.97
2022-12-23T08:47:48.229Z,68.48
2022-12-23T08:51:32.878Z,68.09
2022-12-23T08:53:47.912Z,68.57
2022-12-23T08:56:26.541Z,67.78
2022-12-23T08:58:55.542Z,67.85
2022-12-23T09:01:24.765Z,68.51
2022-12-23T09:03:52.357Z,68.67
2022-12-23T09:06:29.506Z,67.87
2022-12-23T09:08:57.616Z,66.87
2022-12-23T09:11:47.499Z,67.44
2022-12-23T09:14:23.336Z,67.09
2022-12-23T09:16:52.611Z,67.79
2022-12-23T09:19:20.413Z,68.01
2022-12-23T09:21:47.056Z,67.49
2022-12-23T09:24:13.718Z,67.38
2022-12-23T09:26:40.420Z,67.11
2022-12-23T09:29:07.010Z,67.43
2022-12-23T09:31:37.114Z,68.06
2022-12-23T09:34:05.061Z,66.94
2022-12-23T09:36:31.951Z,65.88
2022-12-23T09:38:58.815Z,65.87
2022-12-23T09:41:53.163Z,67.29
2022-12-23T09:44:43.119Z,67.53
2022-12-23T09:47:21.914Z,67.64
2022-12-23T09:49:56.736Z,67.47
2022-12-23T09:52:36.857Z,67.45
2022-12-23T09:55:03.974Z,68.12
2022-12-23T09:57:46.211Z,67.95
2022-12-23T10:00:19.091Z,68.66
2022-12-23T10:03:19.420Z,68.71
2022-12-23T10:06:01.356Z,68.39
2022-12-23T10:08:34.204Z,69.10
2022-12-23T10:11:07.148Z,68.36
2022-12-23T10:13:40.259Z,67.33
2022-12-23T10:16:21.356Z,67.80
2022-12-23T10:19:01.761Z,67.02
2022-12-23T10:21:50.240Z,67.46
2022-12-23T10:24:20.761Z,68.09
2022-12-23T10:26:55.186Z,67.34
2022-12-23T10:29:30.321Z,67.13
2022-12-23T10:32:40.418Z,68.01
2022-12-23T10:35:32.292Z,67.59
2022-12-23T10:38:04.611Z,67.43
2022-12-23T10:40:37.379Z,67.89
2022-12-23T10:43:45.803Z,68.12
2022-12-23T10:46:18.649Z,67.42
2022-12-23T10:49:22.824Z,69.02
2022-12-23T10:51:54.697Z,68.63
2022-12-23T10:54:26.885Z,67.32
2022-12-23T10:56:54.728Z,66.28
2022-12-23T10:59:31.615Z,66.70
2022-12-23T11:02:19.980Z,67.05
2022-12-23T11:04:49.564Z,68.25
2022-12-23T11:10:16.359Z,68.60
2022-12-23T11:12:47.327Z,67.18
2022-12-23T11:15:27.300Z,67.24
2022-12-23T11:18:03.092Z,67.70
2022-12-23T11:20:30.321Z,67.36
2022-12-23T11:23:01.784Z,67.88
2022-12-23T11:25:40.721Z,67.65
2022-12-23T11:28:10.654Z,67.63
2022-12-23T11:30:57.657Z,67.64
2022-12-23T11:33:33.582Z,68.10
2022-12-23T11:36:04.894Z,67.90
2022-12-23T11:38:32.612Z,68.04
2022-12-23T11:40:59.707Z,68.50
2022-12-23T11:43:27.911Z,68.05
2022-12-23T11:46:15.765Z,69.41
2022-12-23T11:48:42.573Z,68.69
2022-12-23T11:51:09.140Z,67.83
2022-12-23T11:53:36.692Z,67.74
2022-12-23T11:56:10.534Z,67.57
2022-12-23T11:58:46.933Z,68.26
2022-12-23T12:01:23.142Z,68.06
2022-12-23T12:03:55.730Z,67.86
2022-12-23T12:06:23.204Z,68.37
2022-12-23T12:08:52.632Z,68.31
2022-12-23T12:11:25.746Z,67.64
2022-12-23T12:14:02.445Z,67.41
2022-12-23T12:16:57.574Z,67.52
2022-12-23T12:19:37.130Z,68.40
2022-12-23T12:22:12.788Z,68.45
2022-12-23T12:24:43.963Z,68.71
2022-12-23T12:27:11.482Z,68.92
2022-12-23T12:29:41.908Z,68.76
2022-12-23T12:32:47.445Z,68.05
2022-12-23T12:35:22.755Z,67.90
2022-12-23T12:37:59.492Z,68.18
2022-12-23T12:40:52.704Z,68.38
2022-12-23T12:43:19.576Z,68.36
2022-12-23T12:46:13.451Z,67.98
2022-12-23T12:49:09.956Z,68.12
2022-12-23T12:51:42.554Z,68.31
2022-12-23T12:54:54.950Z,69.29
2022-12-23T12:57:23.522Z,68.06
2022-12-23T12:59:53.554Z,67.55
2022-12-23T13:02:44.410Z,68.43
2022-12-23T13:05:10.978Z,68.54
2022-12-23T13:07:51.048Z,68.44
2022-12-23T13:10:59.644Z,68.60
2022-12-23T13:13:43.590Z,69.13
2022-12-23T13:16:37.594Z,68.52
2022-12-23T13:19:32.869Z,67.58
2022-12-23T13:22:13.512Z,68.26
2022-12-23T13:24:58.625Z,68.92
2022-12-23T13:27:34.637Z,67.97
2022-12-23T13:30:03.340Z,68.96
2022-12-23T13:32:45.455Z,70.22
2022-12-23T13:35:12.005Z,70.71
2022-12-23T13:37:56.843Z,68.54
2022-12-23T13:40:29.088Z,68.93
2022-12-23T13:42:59.514Z,68.83
2022-12-23T13:45:36.391Z,68.33
2022-12-23T13:48:28.720Z,68.44
2022-12-23T13:51:18.832Z,68.17
2022-12-23T13:54:05.009Z,68.90
2022-12-23T13:56:42.914Z,68.69
2022-12-23T13:59:11.692Z,69.18
2022-12-23T14:01:41.456Z,68.94
2022-12-23T14:04:32.903Z,69.89
2022-12-23T14:07:07.117Z,69.54
2022-12-23T14:09:38.057Z,68.75
2022-12-23T14:12:12.484Z,68.83
2022-12-23T14:14:49.266Z,69.07
2022-12-23T14:17:27.184Z,68.19
2022-12-23T14:20:51.135Z,68.81
2022-12-23T14:23:39.094Z,68.75
2022-12-23T14:26:24.260Z,69.42
2022-12-23T14:28:59.956Z,68.70
2022-12-23T14:31:40.925Z,69.04
2022-12-23T14:34:17.228Z,69.74
2022-12-23T14:37:21.132Z,67.53
2022-12-23T14:39:48.856Z,69.65
2022-12-23T14:42:34.224Z,68.93
2022-12-23T14:45:33.787Z,68.76
2022-12-23T14:48:00.624Z,68.75
2022-12-23T14:50:34.667Z,69.60
2022-12-23T14:53:21.689Z,70.26
2022-12-23T14:55:49.802Z,69.92
2022-12-23T14:58:16.308Z,69.35
2022-12-23T15:01:04.236Z,69.34
2022-12-23T15:03:35.074Z,68.72
2022-12-23T15:06:06.197Z,69.54
2022-12-23T15:08:42.009Z,67.85
2022-12-23T15:11:20.865Z,68.39
2022-12-23T15:13:48.785Z,67.80
2022-12-23T15:16:17.690Z,68.16
2022-12-23T15:18:55.007Z,67.40
2022-12-23T15:21:28.893Z,69.26
2022-12-23T15:23:55.707Z,69.66
2022-12-23T15:26:27.823Z,68.89
2022-12-23T15:28:55.179Z,68.22
2022-12-23T15:31:27.525Z,67.98
2022-12-23T15:34:05.451Z,68.55
2022-12-23T15:36:40.388Z,70.42
2022-12-23T15:39:15.392Z,71.30
2022-12-23T15:41:47.032Z,69.62
2022-12-23T15:44:20.657Z,68.37
2022-12-23T15:46:49.092Z,68.61
2022-12-23T15:49:16.581Z,69.52
2022-12-23T15:54:38.856Z,70.08
2022-12-23T15:57:05.826Z,69.15
2022-12-23T15:59:36.327Z,68.18
2022-12-23T16:02:49.606Z,69.18
2022-12-23T16:05:05.132Z,70.10
2022-12-23T16:07:34.704Z,67.30
2022-12-23T16:10:14.208Z,67.29
2022-12-23T16:12:41.520Z,66.35
2022-12-23T16:15:29.091Z,68.57
2022-12-23T16:18:12.183Z,69.31
2022-12-23T16:20:45.740Z,69.74
2022-12-23T16:23:13.415Z,69.61
2022-12-23T16:25:48.533Z,68.54
2022-12-23T16:28:27.140Z,67.50
2022-12-23T16:30:57.400Z,68.44
2022-12-23T16:33:38.402Z,68.50
2022-12-23T16:36:27.031Z,67.58
2022-12-23T16:39:11.436Z,68.04
2022-12-23T16:41:38.191Z,68.79
2022-12-23T16:44:04.916Z,68.71
2022-12-23T16:46:36.309Z,69.23
2022-12-23T16:49:06.087Z,68.45
2022-12-23T16:51:34.255Z,68.96
2022-12-23T16:54:01.705Z,69.41
2022-12-23T16:56:33.880Z,69.40
2022-12-23T16:59:00.502Z,68.66
2022-12-23T17:01:33.600Z,69.01
2022-12-23T17:04:00.434Z,68.78
2022-12-23T17:06:27.192Z,69.61
2022-12-23T17:08:54.493Z,70.59
2022-12-23T17:11:39.318Z,70.37
2022-12-23T17:14:11.879Z,68.01
2022-12-23T17:16:42.112Z,69.86
2022-12-23T17:19:08.842Z,69.22
2022-12-23T17:21:37.282Z,68.42
2022-12-23T17:24:23.193Z,68.68
2022-12-23T17:26:50.441Z,68.46
2022-12-23T17:29:17.051Z,66.56
2022-12-23T17:31:44.689Z,67.86
2022-12-23T17:34:15.937Z,68.43
2022-12-23T17:36:49.241Z,68.62
2022-12-23T17:39:16.347Z,67.47
2022-12-23T17:41:43.101Z,68.52
2022-12-23T17:44:14.013Z,67.58
2022-12-23T17:46:40.671Z,66.99
2022-12-23T17:49:08.841Z,67.97
2022-12-23T17:51:35.823Z,67.36
2022-12-23T17:54:04.699Z,68.80
2022-12-23T17:56:31.441Z,68.64
2022-12-23T17:58:58.695Z,69.43
2022-12-23T18:01:28.684Z,67.90
2022-12-23T18:03:56.793Z,68.63
2022-12-23T18:06:25.329Z,68.70
2022-12-23T18:08:52.133Z,67.92
2022-12-23T18:11:27.186Z,67.58
2022-12-23T18:13:54.194Z,67.90
2022-12-23T18:16:20.973Z,67.10
2022-12-23T18:18:47.892Z,66.89
2022-12-23T18:21:22.829Z,67.37
2022-12-23T18:23:50.410Z,67.39
2022-12-23T18:26:17.050Z,67.99
2022-12-23T18:28:44.619Z,67.84
2022-12-23T18:31:17.269Z,67.00
2022-12-23T18:33:43.993Z,67.44
2022-12-23T18:36:32.919Z,68.81
2022-12-23T18:39:00.257Z,68.24
2022-12-23T18:41:27.354Z,68.58
2022-12-23T18:43:54.512Z,69.06
2022-12-23T18:46:21.444Z,68.70
2022-12-23T18:48:48.434Z,69.33
2022-12-23T18:51:16.877Z,69.15
2022-12-23T18:53:44.454Z,67.71
2022-12-23T18:56:15.764Z,67.58
2022-12-23T18:58:42.885Z,67.10
2022-12-23T19:01:14.260Z,67.66
2022-12-23T19:03:41.539Z,68.25
2022-12-23T19:06:11.713Z,69.49
2022-12-23T19:08:39.332Z,68.64
2022-12-23T19:11:18.400Z,67.73
2022-12-23T19:13:45.749Z,66.97
2022-12-23T19:16:18.473Z,67.49
2022-12-23T19:18:46.531Z,67.67
2022-12-23T19:21:13.719Z,67.56
2022-12-23T19:23:41.546Z,67.38
2022-12-23T19:26:13.301Z,67.81
2022-12-23T19:28:43.959Z,67.34
2022-12-23T19:31:13.007Z,65.50
2022-12-23T19:33:41.455Z,67.66
2022-12-23T19:36:12.168Z,68.25
2022-12-23T19:38:38.887Z,67.29
2022-12-23T19:41:07.201Z,67.60
2022-12-23T19:43:35.040Z,67.50
2022-12-23T19:46:05.095Z,66.00
2022-12-23T19:48:31.991Z,65.27
2022-12-23T19:51:00.363Z,65.58
2022-12-23T19:53:27.818Z,65.67
2022-12-23T19:55:59.069Z,66.53
2022-12-23T19:58:27.334Z,66.69
2022-12-23T20:01:05.732Z,65.99
2022-12-23T20:03:32.393Z,66.30
2022-12-23T20:05:59.023Z,67.36
2022-12-23T20:08:25.675Z,67.31
2022-12-23T20:11:02.848Z,68.21
2022-12-23T20:13:29.569Z,69.18
2022-12-23T20:15:56.180Z,68.54
2022-12-23T20:18:23.130Z,68.23
2022-12-23T20:20:49.708Z,66.77
2022-12-23T20:23:16.398Z,68.60
2022-12-23T20:25:43.023Z,68.80
2022-12-23T20:28:09.690Z,69.17
2022-12-23T20:30:36.749Z,69.07
2022-12-23T20:33:03.485Z,67.60
2022-12-23T20:35:30.665Z,67.43
2022-12-23T20:37:57.243Z,66.96
2022-12-23T20:40:23.867Z,67.13
2022-12-23T20:42:50.543Z,66.55
2022-12-23T20:45:17.165Z,66.83
2022-12-23T20:47:43.939Z,67.08
2022-12-23T20:50:10.517Z,67.62
2022-12-23T20:52:37.099Z,67.22
2022-12-23T20:55:04.043Z,65.85
2022-12-23T20:57:31.730Z,66.26
2022-12-23T20:59:58.315Z,66.62
2022-12-23T21:02:24.960Z,67.06
2022-12-23T21:04:51.606Z,66.80
2022-12-23T21:07:18.576Z,64.49
2022-12-23T21:09:45.134Z,66.05
2022-12-23T21:12:11.921Z,67.41
2022-12-23T21:14:38.530Z,67.24
2022-12-23T21:17:05.226Z,66.15
2022-12-23T21:19:31.989Z,65.82
2022-12-23T21:21:58.608Z,66.99
2022-12-23T21:24:25.814Z,67.21
2022-12-23T21:26:57.085Z,68.49
2022-12-23T21:29:24.456Z,68.16
2022-12-23T21:31:51.236Z,66.98
2022-12-23T21:34:18.054Z,67.21
2022-12-23T21:36:44.765Z,66.88
2022-12-23T21:39:15.130Z,67.02
2022-12-23T21:41:41.911Z,66.40
2022-12-23T21:44:10.464Z,66.72
2022-12-23T21:46:37.135Z,66.67
2022-12-23T21:49:04.114Z,66.16
2022-12-23T21:51:39.618Z,65.62
2022-12-23T21:54:08.226Z,65.64
2022-12-23T21:56:34.962Z,67.53
2022-12-23T21:59:07.936Z,67.86
2022-12-23T22:01:35.264Z,69.18
2022-12-23T22:04:02.135Z,69.05
2022-12-23T22:06:31.932Z,69.11
2022-12-23T22:08:59.432Z,69.05
2022-12-23T22:11:29.785Z,67.82
2022-12-23T22:14:00.589Z,67.16
2022-12-23T22:16:29.300Z,67.57
2022-12-23T22:18:57.381Z,66.27
2022-12-23T22:21:25.453Z,66.91
2022-12-23T22:23:53.918Z,66.53
2022-12-23T22:26:26.410Z,67.81
2022-12-23T22:28:58.535Z,66.98
2022-12-23T22:31:41.753Z,66.54
2022-12-23T22:34:13.488Z,66.09
2022-12-23T22:36:40.187Z,65.95
2022-12-23T22:39:08.062Z,67.80
2022-12-23T22:41:35.294Z,66.61
2022-12-23T22:44:01.884Z,65.63
2022-12-23T22:46:28.937Z,67.05
2022-12-23T22:48:56.360Z,68.38
2022-12-23T22:51:26.743Z,67.03
2022-12-23T22:53:54.095Z,66.74
2022-12-23T22:56:22.291Z,65.41
2022-12-23T22:58:49.750Z,68.08
2022-12-23T23:01:22.805Z,66.00
2022-12-23T23:03:56.707Z,65.70
2022-12-23T23:06:31.868Z,66.52
2022-12-23T23:08:58.936Z,66.31
2022-12-23T23:11:26.944Z,67.21
2022-12-23T23:13:54.191Z,66.94
2022-12-23T23:16:20.962Z,65.37
2022-12-23T23:18:47.742Z,66.31
2022-12-23T23:21:14.605Z,65.28
2022-12-23T23:23:41.379Z,64.43
2022-12-23T23:26:11.193Z,65.84
2022-12-23T23:28:39.501Z,66.77
2022-12-23T23:31:39.613Z,63.92
2022-12-23T23:33:53.797Z,66.77
2022-12-23T23:36:20.445Z,67.00
2022-12-23T23:38:47.116Z,67.30
2022-12-23T23:41:17.395Z,65.89
2022-12-23T23:43:48.963Z,67.57
2022-12-23T23:46:15.611Z,66.23
2022-12-23T23:48:42.280Z,66.27
2022-12-23T23:51:08.849Z,65.94
2022-12-23T23:53:35.586Z,66.12
2022-12-23T23:56:07.117Z,66.08
2022-12-23T23:58:34.927Z,66.94
